Time;durP1;ratioP1;P1;durP2;ratioP2;P2;SDS_P1;SDS_P2;PMS_P1;PMS_P2;Temp;Humidity;BMP_temperature;BMP_pressure;BME280_temperature;BME280_humidity;BME280_pressure;Samples;Min_cycle;Max_cycle;Signal;HPM_P1;HPM_P2
2021/06/06 00:00:35;;;;;;;7.10;3.55;;;;;;;13.85;96.77;97289.00;4976294;28;20399;-62
2021/06/06 00:03:02;;;;;;;6.78;2.83;;;;;;;13.77;96.75;97287.31;4983673;28;20042;-62
2021/06/06 00:05:35;;;;;;;4.43;3.10;;;;;;;13.72;97.47;97279.38;4981883;28;20038;-61
2021/06/06 00:08:01;;;;;;;5.90;2.72;;;;;;;13.73;97.98;97286.50;4984884;28;20043;-60
2021/06/06 00:10:26;;;;;;;5.15;3.33;;;;;;;13.69;98.40;97280.94;4976347;28;20531;-62
2021/06/06 00:12:52;;;;;;;7.57;3.25;;;;;;;13.65;98.51;97282.84;4983217;28;20038;-61
2021/06/06 00:15:17;;;;;;;8.23;3.78;;;;;;;13.56;98.69;97283.13;4977717;28;20062;-61
2021/06/06 00:17:43;;;;;;;4.85;3.25;;;;;;;13.52;99.50;97285.03;4983843;28;20047;-63
2021/06/06 00:20:10;;;;;;;4.68;3.45;;;;;;;13.46;99.91;97283.75;4960107;28;20046;-62
2021/06/06 00:22:37;;;;;;;5.25;3.38;;;;;;;13.43;100.00;97283.72;4982784;28;20081;-62
2021/06/06 00:25:07;;;;;;;5.95;3.20;;;;;;;13.45;100.00;97284.94;4982082;28;20038;-61
2021/06/06 00:27:32;;;;;;;9.15;3.63;;;;;;;13.40;100.00;97282.50;4981844;28;20156;-62
2021/06/06 00:30:01;;;;;;;5.45;3.60;;;;;;;13.38;100.00;97277.38;4982252;28;20054;-61
2021/06/06 00:32:27;;;;;;;6.80;3.72;;;;;;;13.58;100.00;97274.50;4979143;28;20161;-62
2021/06/06 00:34:53;;;;;;;8.70;3.30;;;;;;;13.81;97.56;97276.34;4984956;28;20567;-64
2021/06/06 00:37:18;;;;;;;5.43;3.10;;;;;;;13.85;97.41;97278.00;4989748;28;20066;-61
2021/06/06 00:39:43;;;;;;;6.90;3.40;;;;;;;13.83;97.26;97274.81;4981241;28;20380;-62
2021/06/06 00:42:09;;;;;;;6.63;3.50;;;;;;;13.73;97.93;97273.50;4960232;28;20043;-62
2021/06/06 00:44:34;;;;;;;6.50;3.67;;;;;;;13.65;97.59;97266.34;4982869;28;20042;-62
2021/06/06 00:47:00;;;;;;;6.32;3.50;;;;;;;13.70;98.07;97266.03;4984535;28;20050;-62
2021/06/06 00:49:25;;;;;;;5.07;3.35;;;;;;;13.65;98.04;97268.28;4975621;28;20649;-61
2021/06/06 00:51:54;;;;;;;5.30;3.50;;;;;;;13.61;98.34;97264.69;4983682;28;20049;-62
2021/06/06 00:54:27;;;;;;;5.35;3.40;;;;;;;13.64;98.65;97259.22;4978296;28;20042;-61
2021/06/06 00:56:59;;;;;;;5.78;3.67;;;;;;;13.72;97.72;97265.63;4984218;28;20048;-61
2021/06/06 00:59:26;;;;;;;5.35;3.15;;;;;;;13.77;97.30;97271.63;4971899;28;20578;-61
2021/06/06 01:01:52;;;;;;;7.63;3.38;;;;;;;13.79;97.51;97267.69;4979992;28;20070;-62
2021/06/06 01:04:18;;;;;;;4.82;3.33;;;;;;;13.75;97.00;97260.16;4977682;28;20038;-61
2021/06/06 01:06:49;;;;;;;7.38;3.22;;;;;;;13.73;96.84;97257.00;4983353;28;20762;-60
2021/06/06 01:09:17;;;;;;;6.35;3.60;;;;;;;13.74;96.42;97258.59;4978654;28;20057;-59
2021/06/06 01:12:04;;;;;;;7.00;3.30;;;;;;;13.75;96.53;97262.91;4982339;28;20042;-62
2021/06/06 01:14:36;;;;;;;7.15;3.33;;;;;;;13.84;96.53;97265.38;4963497;28;20043;-62
2021/06/06 01:17:09;;;;;;;8.45;3.40;;;;;;;13.91;96.43;97259.19;4982683;28;20046;-61
2021/06/06 01:19:47;;;;;;;4.63;3.33;;;;;;;13.85;95.51;97258.72;4981811;28;20060;-62
2021/06/06 01:22:12;;;;;;;4.57;3.10;;;;;;;13.87;95.71;97259.13;4977850;28;20081;-63
2021/06/06 01:24:50;;;;;;;6.38;2.83;;;;;;;13.91;95.36;97256.44;4963950;28;20070;-61
2021/06/06 01:27:20;;;;;;;7.43;2.90;;;;;;;13.95;95.27;97262.75;4974437;28;20042;-63
2021/06/06 01:30:01;;;;;;;5.78;3.05;;;;;;;13.93;94.91;97257.63;4982699;28;20042;-63
2021/06/06 01:32:36;;;;;;;4.28;3.05;;;;;;;13.83;95.44;97254.75;4957651;28;20125;-63
2021/06/06 01:35:09;;;;;;;5.88;3.10;;;;;;;13.87;95.48;97252.84;4976020;28;20046;-63
2021/06/06 01:37:41;;;;;;;5.70;3.15;;;;;;;13.86;96.50;97254.78;4982194;28;20492;-62
2021/06/06 01:40:14;;;;;;;7.07;3.17;;;;;;;13.87;95.58;97253.63;4976921;28;20046;-62
2021/06/06 01:42:45;;;;;;;4.32;3.03;;;;;;;13.88;96.28;97252.47;4981601;28;20041;-63
2021/06/06 01:45:18;;;;;;;4.47;3.30;;;;;;;13.89;95.76;97248.53;4974900;28;20391;-63
2021/06/06 01:47:47;;;;;;;6.03;3.33;;;;;;;13.79;96.45;97248.41;4983199;28;20407;-63
2021/06/06 01:50:19;;;;;;;9.23;3.38;;;;;;;13.84;97.02;97248.09;4986515;28;20423;-63
2021/06/06 01:52:46;;;;;;;6.35;3.63;;;;;;;13.88;96.71;97246.16;4988543;28;20069;-63
2021/06/06 01:55:16;;;;;;;7.00;3.22;;;;;;;13.96;97.09;97254.13;4997528;28;20060;-63
2021/06/06 01:57:42;;;;;;;;;;;;;;;13.89;97.41;97248.53;5000949;28;20388;-63
2021/06/06 02:00:15;;;;;;;5.10;3.08;;;;;;;13.85;97.85;97247.72;4975913;28;20008;-63
2021/06/06 02:02:41;;;;;;;5.53;3.53;;;;;;;13.84;98.08;97246.13;4981394;28;20042;-62
2021/06/06 02:05:14;;;;;;;6.65;3.65;;;;;;;13.94;97.67;97241.91;4958907;28;20125;-63
2021/06/06 02:07:43;;;;;;;4.70;3.40;;;;;;;13.81;98.35;97246.88;4980888;28;20503;-63
2021/06/06 02:10:16;;;;;;;4.55;3.35;;;;;;;13.86;98.30;97240.25;4976195;28;20125;-62
2021/06/06 02:12:45;;;;;;;5.45;3.13;;;;;;;13.90;98.56;97249.31;4981634;28;20039;-62
2021/06/06 02:15:19;;;;;;;5.90;3.88;;;;;;;13.81;98.77;97246.88;4972962;28;20038;-63
2021/06/06 02:17:44;;;;;;;7.40;4.93;;;;;;;13.80;98.44;97239.78;4981666;28;20514;-63
2021/06/06 02:20:11;;;;;;;7.40;3.33;;;;;;;13.79;98.46;97242.91;4972832;28;20042;-63
2021/06/06 02:22:37;;;;;;;11.90;3.85;;;;;;;13.75;98.33;97240.09;4980408;28;20039;-62
2021/06/06 02:25:04;;;;;;;5.40;3.05;;;;;;;13.68;99.01;97243.56;4980338;28;20045;-63
2021/06/06 02:27:36;;;;;;;6.85;3.20;;;;;;;13.63;99.29;97235.66;4981437;28;20084;-61
2021/06/06 02:30:20;;;;;;;5.43;3.10;;;;;;;13.58;99.92;97236.75;4976014;28;20046;-63
2021/06/06 02:33:13;;;;;;;4.88;3.30;;;;;;;13.55;100.00;97226.47;4981561;28;20443;-63
2021/06/06 02:35:56;;;;;;;4.18;3.00;;;;;;;13.58;99.80;97236.75;4985424;28;20042;-62
2021/06/06 02:38:31;;;;;;;6.68;3.17;;;;;;;13.45;100.00;97227.16;4996090;28;20331;-61
2021/06/06 02:41:03;;;;;;;3.65;2.67;;;;;;;13.45;100.00;97234.59;5008297;28;20041;-63
2021/06/06 02:43:39;;;;;;;5.38;2.80;;;;;;;13.49;100.00;97232.72;5005449;28;20045;-62
2021/06/06 02:46:06;;;;;;;4.40;2.88;;;;;;;13.46;100.00;97227.94;4995333;28;20108;-63
2021/06/06 02:48:43;;;;;;;5.43;3.13;;;;;;;13.51;100.00;97224.88;4998115;28;20060;-62
2021/06/06 02:51:14;;;;;;;4.30;3.28;;;;;;;13.54;100.00;97229.59;4989973;28;20038;-63
2021/06/06 02:53:46;;;;;;;5.35;3.22;;;;;;;13.50;100.00;97223.28;4983085;28;20046;-62
2021/06/06 02:56:16;;;;;;;5.97;3.25;;;;;;;13.51;100.00;97225.66;4995182;28;20506;-61
2021/06/06 02:58:47;;;;;;;4.47;3.03;;;;;;;13.50;100.00;97220.53;4989655;28;20555;-61
2021/06/06 03:01:45;;;;;;;4.30;3.15;;;;;;;13.46;100.00;97219.69;4972578;28;20500;-61
2021/06/06 03:04:13;;;;;;;6.60;3.20;;;;;;;13.40;100.00;97221.97;4967506;28;20038;-61
2021/06/06 03:06:49;;;;;;;7.10;3.38;;;;;;;13.49;100.00;97225.25;4979946;28;20047;-62
2021/06/06 03:09:15;;;;;;;4.97;3.15;;;;;;;13.46;100.00;97214.97;4972134;28;20459;-62
2021/06/06 03:11:43;;;;;;;4.10;2.75;;;;;;;13.38;100.00;97216.06;4980877;28;20039;-60
2021/06/06 03:14:12;;;;;;;4.05;3.00;;;;;;;13.41;100.00;97214.50;4975290;28;20057;-61
2021/06/06 03:16:55;;;;;;;5.03;3.28;;;;;;;13.25;100.00;97211.91;4981223;28;20129;-61
2021/06/06 03:19:23;;;;;;;4.68;3.42;;;;;;;13.29;100.00;97218.22;4979264;28;20065;-62
2021/06/06 03:21:51;;;;;;;4.82;3.33;;;;;;;13.27;100.00;97213.13;4986430;28;20046;-60
2021/06/06 03:24:26;;;;;;;5.40;3.40;;;;;;;13.28;100.00;97211.16;4979911;28;20046;-62
2021/06/06 03:26:52;;;;;;;5.32;3.03;;;;;;;13.33;100.00;97208.13;4984836;28;20291;-62
2021/06/06 03:29:22;;;;;;;4.38;3.15;;;;;;;13.35;100.00;97211.28;4979598;28;20042;-62
2021/06/06 03:31:51;;;;;;;;;;;;;;;13.37;100.00;97208.94;4985367;28;20397;-60
2021/06/06 03:34:17;;;;;;;4.05;2.85;;;;;;;13.36;100.00;97199.91;4979970;28;19924;-62
2021/06/06 03:36:45;;;;;;;4.72;3.13;;;;;;;13.35;100.00;97203.81;4982681;28;20042;-63
2021/06/06 03:39:14;;;;;;;6.63;2.97;;;;;;;13.34;100.00;97204.19;4977459;28;20049;-62
2021/06/06 03:41:40;;;;;;;5.45;2.60;;;;;;;13.33;100.00;97195.16;4984769;28;20129;-62
2021/06/06 03:44:06;;;;;;;4.70;3.08;;;;;;;13.33;100.00;97199.88;4978981;28;20146;-62
2021/06/06 03:46:33;;;;;;;5.13;3.08;;;;;;;13.31;100.00;97202.19;4982664;28;20129;-62
2021/06/06 03:48:59;;;;;;;5.93;3.13;;;;;;;13.34;100.00;97190.44;4983289;28;20054;-62
2021/06/06 03:51:26;;;;;;;3.80;3.17;;;;;;;13.31;100.00;97194.72;4977749;28;20041;-63
2021/06/06 03:53:52;;;;;;;6.00;2.67;;;;;;;13.34;100.00;97191.25;4975504;28;20048;-63
2021/06/06 03:56:18;;;;;;;3.97;2.92;;;;;;;13.34;100.00;97185.75;4977219;28;20030;-62
2021/06/06 03:58:44;;;;;;;4.35;3.22;;;;;;;13.39;100.00;97184.59;4976876;28;20046;-62
2021/06/06 04:01:10;;;;;;;5.22;2.63;;;;;;;13.36;100.00;97183.41;4977375;28;20034;-63
2021/06/06 04:03:36;;;;;;;3.42;2.55;;;;;;;13.39;100.00;97182.63;4980326;28;20046;-63
2021/06/06 04:06:03;;;;;;;4.22;2.35;;;;;;;13.46;100.00;97189.41;4980436;28;20506;-62
2021/06/06 04:08:29;;;;;;;3.83;2.53;;;;;;;13.44;100.00;97184.28;4981422;28;20514;-63
2021/06/06 04:10:55;;;;;;;3.90;2.90;;;;;;;13.51;100.00;97189.09;4981384;28;20044;-63
2021/06/06 04:13:21;;;;;;;4.57;2.75;;;;;;;13.45;100.00;97185.88;4977981;28;20084;-63
2021/06/06 04:15:47;;;;;;;5.13;2.78;;;;;;;13.47;100.00;97183.53;4982952;28;20057;-63
2021/06/06 04:18:15;;;;;;;3.20;2.42;;;;;;;13.52;100.00;97185.97;4976948;28;20609;-63
2021/06/06 04:20:42;;;;;;;3.38;2.58;;;;;;;13.50;100.00;97182.78;4982222;28;20572;-63
2021/06/06 04:23:08;;;;;;;2.88;2.25;;;;;;;13.50;100.00;97184.75;4974676;28;20101;-62
2021/06/06 04:25:34;;;;;;;3.83;2.75;;;;;;;13.57;100.00;97180.13;4963638;28;20069;-64
2021/06/06 04:27:59;;;;;;;5.95;2.97;;;;;;;13.58;100.00;97183.69;4982644;28;20078;-63
2021/06/06 04:30:25;;;;;;;4.35;2.75;;;;;;;13.60;100.00;97184.09;4974538;28;20545;-64
2021/06/06 04:32:50;;;;;;;4.38;3.10;;;;;;;13.59;100.00;97185.25;4982282;28;20043;-62
2021/06/06 04:35:16;;;;;;;4.32;2.50;;;;;;;13.57;100.00;97180.13;4977788;28;20069;-64
2021/06/06 04:37:42;;;;;;;4.97;3.15;;;;;;;13.58;100.00;97175.41;4982250;28;20514;-62
2021/06/06 04:40:10;;;;;;;3.45;2.88;;;;;;;13.64;100.00;97184.13;4958076;28;20038;-63
2021/06/06 04:42:36;;;;;;;3.42;2.60;;;;;;;13.60;100.00;97183.31;4980198;28;20051;-64
2021/06/06 04:45:04;;;;;;;4.55;3.30;;;;;;;13.65;100.00;97185.72;4985235;28;20072;-64
2021/06/06 04:47:29;;;;;;;4.65;3.20;;;;;;;13.57;100.00;97182.88;4996087;28;20124;-64
2021/06/06 04:49:54;;;;;;;4.65;3.40;;;;;;;13.64;100.00;97179.41;4987586;28;20516;-63
2021/06/06 04:52:20;;;;;;;5.63;3.05;;;;;;;13.60;100.00;97178.59;4978864;28;20050;-63
2021/06/06 04:54:45;;;;;;;5.60;3.35;;;;;;;13.57;100.00;97185.63;4983959;28;20046;-63
2021/06/06 04:57:11;;;;;;;5.07;3.60;;;;;;;13.61;100.00;97174.66;4977060;28;20124;-63
2021/06/06 04:59:38;;;;;;;4.68;3.35;;;;;;;13.60;100.00;97177.81;4982184;28;20050;-63
2021/06/06 05:02:06;;;;;;;5.35;3.40;;;;;;;13.62;100.00;97180.97;4975575;28;20046;-60
2021/06/06 05:04:33;;;;;;;4.47;3.28;;;;;;;13.63;100.00;97177.03;4980034;28;20043;-63
2021/06/06 05:06:58;;;;;;;4.15;3.15;;;;;;;13.58;100.00;97178.97;4981940;28;20092;-63
2021/06/06 05:09:24;;;;;;;4.70;3.60;;;;;;;13.56;100.00;97167.53;4970994;28;20541;-63
2021/06/06 05:11:49;;;;;;;5.53;3.78;;;;;;;13.59;100.00;97171.50;4981249;28;20498;-62
2021/06/06 05:14:15;;;;;;;4.97;3.30;;;;;;;13.63;100.00;97177.84;4976281;28;20038;-62
2021/06/06 05:16:40;;;;;;;4.50;3.55;;;;;;;13.68;100.00;97173.94;4982822;28;20042;-63
2021/06/06 05:19:05;;;;;;;5.15;3.55;;;;;;;13.75;100.00;97168.53;4978382;28;20046;-62
2021/06/06 05:21:31;;;;;;;5.60;3.65;;;;;;;13.76;100.00;97167.38;4977706;28;20558;-63
2021/06/06 05:23:57;;;;;;;5.13;3.65;;;;;;;13.80;100.00;97165.44;4981926;28;20049;-63
2021/06/06 05:26:22;;;;;;;5.55;3.22;;;;;;;13.82;100.00;97168.63;4973084;28;20893;-63
2021/06/06 05:28:48;;;;;;;4.95;3.33;;;;;;;13.86;100.00;97179.66;4963908;28;20092;-63
2021/06/06 05:31:16;;;;;;;5.07;3.35;;;;;;;13.85;100.00;97172.59;4975665;28;20053;-61
2021/06/06 05:33:41;;;;;;;4.00;3.20;;;;;;;13.93;100.00;97175.03;4978739;28;20137;-62
2021/06/06 05:36:07;;;;;;;5.60;3.63;;;;;;;13.94;100.00;97173.06;4976147;28;20042;-63
2021/06/06 05:38:33;;;;;;;15.52;3.10;;;;;;;13.95;100.00;97178.22;4978946;28;20198;-64
2021/06/06 05:41:00;;;;;;;5.05;2.80;;;;;;;14.00;100.00;97181.78;4980473;28;20049;-64
2021/06/06 05:43:26;;;;;;;5.28;2.90;;;;;;;13.92;100.00;97176.19;4975032;28;20512;-63
2021/06/06 05:45:53;;;;;;;2.85;2.45;;;;;;;13.98;100.00;97181.38;4980011;28;20201;-63
2021/06/06 05:48:19;;;;;;;3.83;2.70;;;;;;;14.01;100.00;97175.09;4974925;28;20507;-62
2021/06/06 05:50:47;;;;;;;6.45;3.03;;;;;;;14.01;100.00;97175.91;4981056;28;20089;-63
2021/06/06 05:53:13;;;;;;;4.32;2.55;;;;;;;14.06;100.00;97166.50;4975018;28;20049;-63
2021/06/06 05:55:39;;;;;;;4.25;2.38;;;;;;;13.99;100.00;97166.41;4980416;28;20039;-63
2021/06/06 05:58:06;;;;;;;4.38;2.35;;;;;;;13.98;100.00;97171.16;4972217;28;20045;-63
2021/06/06 06:00:35;;;;;;;3.42;2.17;;;;;;;14.01;100.00;97173.16;4980321;28;20042;-63
2021/06/06 06:03:01;;;;;;;2.60;2.00;;;;;;;13.98;100.00;97173.91;4979234;28;20380;-64
2021/06/06 06:05:26;;;;;;;3.97;2.53;;;;;;;13.89;100.00;97168.69;4975809;28;20555;-63
2021/06/06 06:07:52;;;;;;;3.83;2.00;;;;;;;13.95;100.00;97169.94;4982267;28;20141;-63
2021/06/06 06:10:29;;;;;;;2.92;1.83;;;;;;;13.88;100.00;97167.13;4976439;28;20435;-64
2021/06/06 06:12:56;;;;;;;2.65;1.98;;;;;;;13.92;100.00;97164.41;4979604;28;20137;-64
2021/06/06 06:15:22;;;;;;;2.45;1.77;;;;;;;14.10;100.00;97167.34;4974892;28;20076;-62
2021/06/06 06:17:48;;;;;;;2.92;2.10;;;;;;;14.12;100.00;97171.28;4980413;28;20193;-62
2021/06/06 06:20:18;;;;;;;4.20;1.98;;;;;;;14.17;100.00;97169.34;4972558;28;20562;-64
2021/06/06 06:22:44;;;;;;;2.25;1.60;;;;;;;14.19;100.00;97170.56;4973196;28;20431;-64
2021/06/06 06:25:12;;;;;;;2.08;1.52;;;;;;;14.32;100.00;97171.88;4972020;28;20038;-63
2021/06/06 06:27:38;;;;;;;1.77;1.27;;;;;;;14.39;99.15;97167.63;4979863;28;20046;-63
2021/06/06 06:30:07;;;;;;;3.05;1.70;;;;;;;14.41;99.84;97165.25;4976543;28;20448;-62
2021/06/06 06:32:33;;;;;;;2.58;1.55;;;;;;;14.39;99.59;97167.63;4978795;28;20046;-63
2021/06/06 06:34:58;;;;;;;2.70;1.70;;;;;;;14.38;99.86;97171.53;4978189;28;20385;-63
2021/06/06 06:37:25;;;;;;;1.95;1.50;;;;;;;14.43;100.00;97174.72;4974257;28;20042;-63
2021/06/06 06:39:51;;;;;;;2.30;1.70;;;;;;;14.44;99.10;97167.25;4979501;28;20069;-66
2021/06/06 06:42:17;;;;;;;3.22;1.90;;;;;;;14.53;99.87;97175.97;4974532;28;20699;-63
2021/06/06 06:44:42;;;;;;;1.52;1.23;;;;;;;14.56;99.48;97177.97;4979197;28;20125;-63
2021/06/06 06:47:07;;;;;;;2.15;1.70;;;;;;;14.51;99.17;97170.88;4974461;28;20054;-63
2021/06/06 06:49:33;;;;;;;2.20;1.48;;;;;;;14.53;98.75;97174.03;4979341;28;20054;-62
2021/06/06 06:51:58;;;;;;;6.70;1.60;;;;;;;14.53;99.99;97179.53;4990974;28;20038;-62
2021/06/06 06:54:23;;;;;;;2.20;1.45;;;;;;;14.49;99.71;97175.16;4975238;28;20046;-62
2021/06/06 06:56:49;;;;;;;1.58;1.10;;;;;;;14.50;99.74;97176.75;4976228;28;20135;-63
2021/06/06 06:59:14;;;;;;;1.67;1.25;;;;;;;14.44;99.93;97178.25;4970883;28;20057;-59
2021/06/06 07:01:40;;;;;;;2.45;1.33;;;;;;;14.49;100.00;97175.94;4980463;28;20049;-61
2021/06/06 07:04:05;;;;;;;1.63;1.10;;;;;;;14.51;100.00;97175.56;4974712;28;20357;-63
2021/06/06 07:06:32;;;;;;;1.20;1.10;;;;;;;14.47;99.84;97180.25;4977464;28;20125;-63
2021/06/06 07:08:58;;;;;;;1.95;1.38;;;;;;;14.51;99.99;97173.63;4979422;28;20057;-63
2021/06/06 07:11:23;;;;;;;3.55;2.55;;;;;;;14.44;100.00;97179.06;4973766;28;20231;-63
2021/06/06 07:13:50;;;;;;;2.80;1.48;;;;;;;14.47;100.00;97181.06;4979381;28;20080;-63
2021/06/06 07:16:17;;;;;;;1.90;1.35;;;;;;;14.58;98.87;97175.66;4974295;28;20050;-63
2021/06/06 07:18:42;;;;;;;2.92;1.67;;;;;;;14.47;99.48;97172.00;4978485;28;20507;-63
2021/06/06 07:21:14;;;;;;;2.05;1.63;;;;;;;14.49;99.60;97175.94;4974937;28;20043;-61
2021/06/06 07:23:42;;;;;;;4.03;1.80;;;;;;;14.48;100.00;97184.63;4978657;28;20046;-62
2021/06/06 07:26:14;;;;;;;2.53;1.80;;;;;;;14.48;100.00;97187.38;4974544;28;20030;-62
2021/06/06 07:28:40;;;;;;;3.45;2.30;;;;;;;14.49;100.00;97180.66;4977544;28;20051;-62
2021/06/06 07:31:06;;;;;;;4.35;2.50;;;;;;;14.66;99.68;97185.59;4973346;28;20054;-63
2021/06/06 07:33:43;;;;;;;3.33;2.20;;;;;;;14.84;100.00;97169.16;4978673;28;20096;-63
2021/06/06 07:36:14;;;;;;;3.53;2.65;;;;;;;14.94;98.74;97177.91;4988522;28;20043;-63
2021/06/06 07:38:39;;;;;;;4.07;2.65;;;;;;;14.92;98.67;97178.28;4983422;28;20050;-64
2021/06/06 07:41:05;;;;;;;5.07;2.88;;;;;;;15.16;97.14;97187.09;4972298;28;20404;-63
2021/06/06 07:43:33;;;;;;;9.32;3.42;;;;;;;15.24;97.48;97185.97;4980082;28;20053;-64
2021/06/06 07:45:59;;;;;;;10.77;3.72;;;;;;;15.28;97.17;97176.53;4978953;28;20102;-64
2021/06/06 07:48:24;;;;;;;4.78;3.15;;;;;;;15.36;95.50;97185.66;4975904;28;20742;-63
2021/06/06 07:50:51;;;;;;;8.30;6.50;;;;;;;15.33;95.75;97185.63;4984212;28;20050;-64
2021/06/06 07:53:18;;;;;;;9.27;7.40;;;;;;;15.22;96.33;97182.81;4983647;28;20109;-64
2021/06/06 07:55:43;;;;;;;7.50;4.10;;;;;;;15.27;96.61;97187.97;4978208;28;20045;-62
2021/06/06 07:58:16;;;;;;;5.38;3.67;;;;;;;15.08;96.43;97181.53;4971998;28;20054;-63
2021/06/06 08:00:43;;;;;;;5.30;3.70;;;;;;;15.03;96.52;97183.88;4978392;28;20050;-63
2021/06/06 08:03:09;;;;;;;4.95;3.75;;;;;;;14.88;97.93;97185.75;4975928;28;20048;-62
2021/06/06 08:05:36;;;;;;;7.35;4.70;;;;;;;14.90;98.99;97191.66;4982797;28;20089;-62
2021/06/06 08:08:03;;;;;;;7.57;4.55;;;;;;;15.01;99.22;97181.50;4981470;28;20062;-62
2021/06/06 08:10:31;;;;;;;7.55;4.65;;;;;;;15.04;99.00;97177.19;4980581;28;20046;-62
2021/06/06 08:12:56;;;;;;;6.13;4.28;;;;;;;15.17;99.04;97180.41;4979383;28;20504;-63
2021/06/06 08:15:23;;;;;;;6.07;4.15;;;;;;;15.29;98.47;97177.34;4976825;28;20371;-64
2021/06/06 08:17:50;;;;;;;5.63;3.80;;;;;;;15.39;97.85;97175.78;4964309;28;20034;-62
2021/06/06 08:20:24;;;;;;;9.07;3.95;;;;;;;15.55;95.12;97167.97;4971932;28;20050;-62
2021/06/06 08:22:51;;;;;;;4.72;3.75;;;;;;;15.61;95.78;97160.91;4975159;28;20511;-64
2021/06/06 08:25:18;;;;;;;5.80;3.60;;;;;;;15.63;95.21;97166.06;4977921;28;20104;-62
2021/06/06 08:27:43;;;;;;;5.10;3.42;;;;;;;15.66;93.92;97168.84;4981930;28;20105;-62
2021/06/06 08:30:17;;;;;;;4.93;4.03;;;;;;;15.60;94.46;97170.38;4977686;28;20046;-61
2021/06/06 08:32:42;;;;;;;6.05;4.07;;;;;;;15.72;94.77;97171.19;4982957;28;20507;-61
2021/06/06 08:35:08;;;;;;;5.65;4.15;;;;;;;15.51;96.17;97169.94;4959988;28;20050;-62
2021/06/06 08:37:34;;;;;;;6.05;4.60;;;;;;;15.65;95.20;97163.69;4982677;28;20051;-62
2021/06/06 08:40:00;;;;;;;6.45;4.97;;;;;;;15.51;96.69;97166.41;4980349;28;20133;-62
2021/06/06 08:42:31;;;;;;;7.25;4.95;;;;;;;15.49;96.39;97164.81;4974762;28;20656;-63
2021/06/06 08:45:07;;;;;;;6.82;4.40;;;;;;;15.29;96.12;97166.28;4983457;28;20478;-63
2021/06/06 08:47:35;;;;;;;8.40;5.75;;;;;;;15.31;97.79;97168.66;4981866;28;20706;-62
2021/06/06 08:50:08;;;;;;;5.65;4.10;;;;;;;15.34;95.19;97176.97;4982418;28;20105;-62
2021/06/06 08:52:39;;;;;;;8.32;4.68;;;;;;;15.49;96.14;97173.09;4968762;28;20080;-64
2021/06/06 08:55:10;;;;;;;7.18;4.78;;;;;;;15.23;96.40;97176.91;4983227;28;20093;-61
2021/06/06 08:57:46;;;;;;;7.25;4.47;;;;;;;15.25;96.78;97174.56;4980562;28;20046;-57
2021/06/06 09:00:35;;;;;;;6.35;4.13;;;;;;;15.29;95.14;97180.09;4975795;28;20401;-59
2021/06/06 09:03:19;;;;;;;6.05;4.15;;;;;;;15.30;95.60;97178.91;4969619;28;20043;-60
2021/06/06 09:05:45;;;;;;;7.70;4.85;;;;;;;15.24;95.68;97174.94;4982172;28;20530;-60
2021/06/06 09:08:19;;;;;;;6.10;4.82;;;;;;;15.19;96.92;97178.06;4975697;28;20039;-61
2021/06/06 09:10:53;;;;;;;7.65;5.05;;;;;;;15.01;97.59;97173.22;4980466;28;20050;-62
2021/06/06 09:13:20;;;;;;;6.90;5.00;;;;;;;15.10;96.51;97184.69;4976660;28;20042;-61
2021/06/06 09:15:46;;;;;;;9.82;5.20;;;;;;;15.11;96.29;97171.72;4974291;28;20136;-63
2021/06/06 09:18:16;;;;;;;8.30;5.70;;;;;;;15.09;97.73;97174.06;4973461;28;20042;-60
2021/06/06 09:20:43;;;;;;;9.98;5.63;;;;;;;15.25;97.60;97176.50;4982050;28;20041;-61
2021/06/06 09:23:16;;;;;;;7.57;5.57;;;;;;;15.42;95.70;97170.28;4970611;28;20873;-63
2021/06/06 09:25:51;;;;;;;10.07;6.78;;;;;;;15.41;96.48;97178.97;4981588;28;20085;-63
2021/06/06 09:28:22;;;;;;;6.78;5.07;;;;;;;15.49;95.84;97175.84;4972344;28;20053;-60
2021/06/06 09:31:15;;;;;;;7.30;4.65;;;;;;;15.49;95.34;97173.09;4965312;28;20042;-59
2021/06/06 09:33:47;;;;;;;8.63;4.85;;;;;;;15.68;93.77;97171.19;4981805;28;20049;-64
2021/06/06 09:36:27;;;;;;;6.47;4.68;;;;;;;15.78;94.17;97159.41;4972259;28;20408;-64
2021/06/06 09:39:13;;;;;;;6.82;4.95;;;;;;;15.84;94.02;97168.91;4979155;28;20042;-64
2021/06/06 09:41:41;;;;;;;7.70;5.47;;;;;;;15.54;95.01;97163.66;4961715;28;20046;-62
2021/06/06 09:44:15;;;;;;;7.18;4.90;;;;;;;15.72;93.59;97168.44;4974752;28;20479;-62
2021/06/06 09:46:48;;;;;;;7.70;5.10;;;;;;;15.85;94.26;97170.50;4981735;28;20030;-63
2021/06/06 09:49:25;;;;;;;5.90;3.60;;;;;;;16.11;92.70;97176.09;4981441;28;20400;-64
2021/06/06 09:51:53;;;;;;;8.77;4.85;;;;;;;15.92;93.54;97179.97;4985726;28;20073;-63
2021/06/06 09:54:29;;;;;;;6.18;4.22;;;;;;;16.02;92.53;97176.44;4974295;28;20068;-63
2021/06/06 09:56:59;;;;;;;6.50;4.43;;;;;;;15.98;94.33;97170.91;4979700;28;20057;-62
2021/06/06 09:59:28;;;;;;;7.00;4.72;;;;;;;15.73;94.58;97176.34;4976283;28;20613;-62
2021/06/06 10:02:12;;;;;;;7.47;4.90;;;;;;;15.64;94.57;97179.44;4979901;28;20046;-63
2021/06/06 10:04:40;;;;;;;6.55;4.82;;;;;;;15.60;94.25;97166.81;4980101;28;20046;-62
2021/06/06 10:07:12;;;;;;;5.88;4.40;;;;;;;15.69;94.58;97172.78;4975309;28;20104;-62
2021/06/06 10:09:41;;;;;;;5.90;4.65;;;;;;;15.65;95.69;97180.25;4980181;28;20508;-62
2021/06/06 10:12:26;;;;;;;6.95;4.93;;;;;;;15.74;94.12;97177.16;4974096;28;20576;-62
2021/06/06 10:14:58;;;;;;;10.88;5.47;;;;;;;15.66;95.97;97184.59;4980436;28;20053;-60
2021/06/06 10:17:48;;;;;;;7.25;5.50;;;;;;;15.60;96.32;97180.63;4956810;28;20100;-62
2021/06/06 10:20:24;;;;;;;9.85;6.97;;;;;;;15.54;95.90;97179.41;4975948;28;20416;-63
2021/06/06 10:22:54;;;;;;;8.70;6.80;;;;;;;15.31;97.34;97182.47;4981145;28;20042;-61
2021/06/06 10:25:27;;;;;;;8.77;5.57;;;;;;;15.59;97.30;97181.81;4974737;28;20059;-62
2021/06/06 10:28:03;;;;;;;8.20;5.90;;;;;;;15.72;94.57;97183.06;4977658;28;20100;-62
2021/06/06 10:30:33;;;;;;;10.23;6.00;;;;;;;15.67;96.21;97180.66;4942394;28;20084;-64
2021/06/06 10:33:18;;;;;;;7.70;5.15;;;;;;;15.52;94.95;97182.56;4974504;28;20066;-62
2021/06/06 10:35:43;;;;;;;8.10;5.43;;;;;;;15.89;94.05;97186.28;4979353;28;20038;-63
2021/06/06 10:38:09;;;;;;;7.93;4.68;;;;;;;16.07;93.39;97181.59;4977227;28;20065;-64
2021/06/06 10:40:47;;;;;;;8.85;5.55;;;;;;;16.43;91.75;97184.44;4982592;28;20046;-64
2021/06/06 10:43:42;;;;;;;6.55;4.32;;;;;;;16.33;91.98;97180.47;4975084;28;20101;-62
2021/06/06 10:46:25;;;;;;;6.45;4.38;;;;;;;16.23;92.96;97182.03;4970162;28;20047;-63
2021/06/06 10:49:17;;;;;;;6.20;4.10;;;;;;;15.94;93.85;97178.41;4991382;28;20058;-62
2021/06/06 10:52:00;;;;;;;5.75;3.85;;;;;;;15.85;94.50;97180.75;4987123;28;20042;-64
2021/06/06 10:54:37;;;;;;;5.03;3.63;;;;;;;15.59;95.27;97179.84;4976667;28;20408;-63
2021/06/06 10:57:14;;;;;;;4.45;3.28;;;;;;;15.90;94.37;97179.56;4978044;28;20042;-64
2021/06/06 10:59:59;;;;;;;4.15;2.80;;;;;;;16.11;91.58;97181.59;4980693;28;20067;-64
2021/06/06 11:02:50;;;;;;;4.15;2.90;;;;;;;16.17;91.71;97178.06;4977760;28;20038;-66
2021/06/06 11:05:38;;;;;;;4.63;2.80;;;;;;;16.34;90.76;97170.19;4971611;28;20050;-64
2021/06/06 11:08:35;;;;;;;6.57;3.60;;;;;;;16.07;93.33;97173.31;4958417;28;20054;-65
2021/06/06 11:11:09;;;;;;;4.40;2.97;;;;;;;16.35;90.97;97166.25;4962465;28;20516;-64
2021/06/06 11:13:39;;;;;;;4.30;2.88;;;;;;;16.55;91.71;97169.44;4977288;28;20133;-62
2021/06/06 11:16:16;;;;;;;4.88;2.92;;;;;;;16.68;89.66;97167.84;4977232;28;20043;-63
2021/06/06 11:18:59;;;;;;;4.78;3.28;;;;;;;16.54;91.77;97168.63;4978687;28;20042;-65
2021/06/06 11:21:41;;;;;;;6.55;4.13;;;;;;;16.44;92.75;97167.44;4975359;28;20042;-64
2021/06/06 11:24:40;;;;;;;4.47;3.17;;;;;;;16.28;93.43;97155.97;4976030;28;20733;-63
2021/06/06 11:27:11;;;;;;;4.47;2.85;;;;;;;16.13;93.16;97159.91;4974325;28;20499;-64
2021/06/06 11:29:52;;;;;;;3.47;3.00;;;;;;;16.20;90.04;97155.16;4987457;28;20072;-62
2021/06/06 11:32:38;;;;;;;5.70;2.55;;;;;;;16.31;90.82;97157.94;4985045;28;20121;-64
2021/06/06 11:35:25;;;;;;;3.70;2.53;;;;;;;16.57;90.54;97154.00;4977205;28;20057;-64
2021/06/06 11:38:00;;;;;;;3.25;2.60;;;;;;;16.65;91.28;97154.00;4978322;28;20038;-64
2021/06/06 11:40:36;;;;;;;3.60;2.60;;;;;;;16.60;90.82;97144.94;4977083;28;20046;-62
2021/06/06 11:43:10;;;;;;;4.50;3.10;;;;;;;16.68;90.28;97144.94;4982146;28;20066;-64
2021/06/06 11:45:40;;;;;;;5.97;3.53;;;;;;;16.86;89.05;97150.47;4985458;28;20034;-63